メインページ
METAR-TAF:

METAR-TAF

空港 :

エカテリンブルク, ロシア

コルツォヴォ国際空港

緯度: 56-50N, 経度: 060-38E, 海抜: 237m

現時点の気象観測

当レポートは36分前の12:30(UTC)に作成
無風
気温 -5°C
湿度 100%
気圧 1016 hPa
視程: 6000m

METAR: USSS 241230Z 00000MPS 6000 NSC M05/M05 Q1016 R26R/290039 NOSIG RMK QFE741/0988

時間: 18:06 (13:06 UTC)

予報

当レポートは2時間7分前の10:59(UTC)に作成
予報は24日の 12時(UTC)から 25日の 12時(UTC)まで有効
南東の風 6kt
視程: 2100m
高度1100ftの雲は散在している
24日の 12時(UTC)から 25日の 05時(UTC)まで一時的に
視程: 0300m
高度200ftの
着氷性の霧

TAF: USSS 241059Z 2412/2512 13003MPS 2100 BR SCT011 TEMPO 2412/2505 0300 FZFG VV002

4,000以上の空港の気象観測と天気予報(METAR報とTAF報)

利用可能な観測所は地図上に黄色い丸と赤い丸で示す。

丸の上にカーソルを重ねると観測所名を参照できる。

次にクリックすると気象観測と天気予報を参照できる。

マップの切り替え:黒色「×」印の緑ボタンをクリックして拡大、「-」印の緑ボタンをクリックして縮小、緑色の三角印をクリックして隣りの地図に切り替え


METAR-TAF: